Terminal Aerodrome Forecast
Issued by NWS

Home | Current Version | Previous Version | Text Only | Print | Product List | Glossary On
Versions: 1 2 3 4 5 6 7 8 9 10 11 12 13 14 15 16 17 18
000
FTUS45 KPSR 230537
TAFSDL
TAF
KSDL 230537Z 2306/2406 VRB04KT P6SM BKN100
     FM231000 15005KT P6SM VCSH BKN060 OVC100
     FM231800 22006KT P6SM VCSH OVC050
      TEMPO 2319/2323 5SM -SHRA BR OVC040
     FM232300 25012KT 5SM -RA BR OVC040
      TEMPO 2323/2402 4SM RA BR BKN030
     FM240500 24005KT P6SM VCSH SCT040 BKN080=

USA.gov is the U.S. government's official web portal to all federal, state and local government web resources and services.